Time;durP1;ratioP1;P1;durP2;ratioP2;P2;SDS_P1;SDS_P2;PMS_P1;PMS_P2;Temp;Humidity;BMP_temperature;BMP_pressure;BME280_temperature;BME280_humidity;BME280_pressure;Samples;Min_cycle;Max_cycle;Signal;HPM_P1;HPM_P2
2023/07/19 00:02:09;;;;;;;3.90;3.38;;;15.00;99.90;;;;;;5011582;28;20156;-77
2023/07/19 00:04:34;;;;;;;5.30;3.30;;;15.10;99.90;;;;;;5011420;28;20029;-78
2023/07/19 00:07:00;;;;;;;5.07;3.03;;;15.00;99.90;;;;;;5011370;28;20390;-77
2023/07/19 00:09:26;;;;;;;4.88;3.63;;;15.00;99.90;;;;;;5010041;28;20463;-78
2023/07/19 00:11:51;;;;;;;5.40;3.65;;;15.10;99.90;;;;;;5010073;28;20026;-78
2023/07/19 00:14:17;;;;;;;3.67;3.05;;;15.10;99.90;;;;;;5010035;28;20025;-77
2023/07/19 00:16:42;;;;;;;3.70;3.17;;;15.20;99.90;;;;;;5011007;28;20360;-78
2023/07/19 00:19:08;;;;;;;7.22;3.38;;;15.20;99.90;;;;;;5009255;28;20025;-78
2023/07/19 00:21:33;;;;;;;4.10;3.47;;;15.30;99.90;;;;;;5009833;28;20512;-78
2023/07/19 00:23:59;;;;;;;4.25;3.40;;;15.30;99.90;;;;;;5010974;28;20026;-77
2023/07/19 00:26:25;;;;;;;7.28;3.35;;;15.20;99.90;;;;;;5011194;28;20105;-77
2023/07/19 00:28:50;;;;;;;4.70;3.53;;;15.20;99.90;;;;;;5011097;28;20410;-78
2023/07/19 00:31:16;;;;;;;3.67;3.33;;;15.10;99.90;;;;;;5009886;28;20026;-77
2023/07/19 00:33:41;;;;;;;4.65;2.80;;;15.00;99.90;;;;;;5009700;28;20033;-77
2023/07/19 00:36:07;;;;;;;9.55;4.55;;;15.00;99.90;;;;;;5010921;28;20057;-78
2023/07/19 00:38:32;;;;;;;5.05;4.18;;;15.00;99.90;;;;;;5009777;28;20022;-77
2023/07/19 00:40:58;;;;;;;4.95;3.05;;;14.90;99.90;;;;;;5010756;28;20049;-78
2023/07/19 00:43:24;;;;;;;3.78;3.40;;;15.00;99.90;;;;;;5010903;28;20022;-78
2023/07/19 00:45:54;;;;;;;4.82;3.30;;;15.00;99.90;;;;;;5010874;28;20094;-78
2023/07/19 00:48:20;;;;;;;3.85;3.40;;;15.00;99.90;;;;;;5010864;28;20022;-78
2023/07/19 00:50:48;;;;;;;3.40;3.10;;;14.90;99.90;;;;;;5010766;28;20057;-77
2023/07/19 00:53:14;;;;;;;3.92;3.63;;;14.90;99.90;;;;;;5010675;28;20025;-77
2023/07/19 00:55:40;;;;;;;5.22;3.50;;;14.90;99.90;;;;;;5009476;28;20065;-77
2023/07/19 00:58:07;;;;;;;7.78;4.25;;;14.90;99.90;;;;;;5009382;28;20026;-77
2023/07/19 01:00:32;;;;;;;4.90;3.17;;;15.00;99.90;;;;;;5010491;28;20395;-77
2023/07/19 01:02:59;;;;;;;5.75;3.72;;;15.00;99.90;;;;;;5010560;28;20030;-78
2023/07/19 01:05:26;;;;;;;5.28;3.00;;;15.00;99.90;;;;;;5009225;28;20033;-77
2023/07/19 01:07:53;;;;;;;6.05;3.10;;;15.00;99.90;;;;;;5010557;28;20049;-77
2023/07/19 01:10:19;;;;;;;4.30;3.38;;;15.00;99.90;;;;;;5010415;28;20425;-78
2023/07/19 01:13:11;;;;;;;4.57;3.42;;;15.00;99.90;;;;;;5010609;28;20034;-77
2023/07/19 01:15:38;;;;;;;5.82;3.15;;;15.10;99.90;;;;;;5010544;28;20026;-77
2023/07/19 01:18:04;;;;;;;4.18;3.75;;;15.10;99.90;;;;;;5010448;28;20033;-78
2023/07/19 01:20:30;;;;;;;4.70;2.90;;;15.10;99.90;;;;;;5010279;28;20034;-77
2023/07/19 01:22:56;;;;;;;5.47;3.22;;;15.00;99.90;;;;;;5009201;28;20113;-78
2023/07/19 01:25:22;;;;;;;5.03;4.10;;;15.00;99.90;;;;;;5009076;28;20567;-77
2023/07/19 01:27:49;;;;;;;4.35;3.45;;;15.00;99.90;;;;;;5009031;28;20022;-77
2023/07/19 01:30:15;;;;;;;3.30;3.03;;;14.90;99.90;;;;;;5011973;28;20527;-77
2023/07/19 01:32:40;;;;;;;4.55;3.13;;;14.90;99.90;;;;;;5013673;28;20038;-77
2023/07/19 01:35:06;;;;;;;3.60;2.75;;;14.90;99.90;;;;;;5013759;28;20022;-78
2023/07/19 01:37:32;;;;;;;4.75;3.42;;;14.80;99.90;;;;;;5013683;28;20040;-77
2023/07/19 01:39:59;;;;;;;3.53;2.83;;;14.90;99.90;;;;;;5013560;28;20041;-78
2023/07/19 01:42:26;;;;;;;4.10;2.92;;;14.80;99.90;;;;;;5012342;28;20022;-78
2023/07/19 01:44:51;;;;;;;3.92;3.30;;;14.80;99.90;;;;;;5013563;28;20022;-78
2023/07/19 01:47:17;;;;;;;4.75;3.53;;;14.80;99.90;;;;;;5013794;28;20026;-78
2023/07/19 01:49:42;;;;;;;4.20;2.92;;;14.80;99.90;;;;;;5013465;28;20030;-77
2023/07/19 01:52:08;;;;;;;4.65;3.15;;;14.80;99.90;;;;;;5013489;28;20078;-78
2023/07/19 01:54:33;;;;;;;5.22;3.33;;;14.80;99.90;;;;;;5013044;28;20042;-76
2023/07/19 01:56:59;;;;;;;7.25;2.92;;;14.90;99.90;;;;;;5013256;28;20498;-78
2023/07/19 01:59:25;;;;;;;3.60;3.28;;;14.90;99.90;;;;;;5011965;28;20040;-77
2023/07/19 02:01:51;;;;;;;4.35;3.28;;;14.90;99.90;;;;;;5013291;28;20043;-76
2023/07/19 02:04:16;;;;;;;3.42;3.13;;;14.90;99.90;;;;;;5012105;28;20022;-77
2023/07/19 02:06:42;;;;;;;4.63;3.35;;;14.90;99.90;;;;;;5013143;28;20087;-76
2023/07/19 02:09:07;;;;;;;4.72;3.40;;;14.80;99.90;;;;;;5011923;28;20026;-76
2023/07/19 02:11:34;;;;;;;3.92;3.33;;;14.80;99.90;;;;;;5002557;28;20033;-78
2023/07/19 02:14:00;;;;;;;5.70;3.10;;;14.80;99.90;;;;;;4992278;28;20022;-77
2023/07/19 02:16:25;;;;;;;4.10;3.60;;;14.80;99.90;;;;;;4993547;28;20098;-77
2023/07/19 02:18:51;;;;;;;4.72;2.70;;;14.80;99.90;;;;;;4992200;28;20018;-76
2023/07/19 02:21:16;;;;;;;7.38;3.20;;;14.80;99.90;;;;;;4993517;28;20484;-77
2023/07/19 02:23:43;;;;;;;3.88;3.08;;;14.80;99.90;;;;;;4993348;28;20018;-77
2023/07/19 02:26:08;;;;;;;4.25;3.08;;;14.80;99.90;;;;;;4992201;28;20034;-76
2023/07/19 02:28:34;;;;;;;5.55;3.60;;;14.80;99.90;;;;;;4991994;28;20426;-77
2023/07/19 02:31:00;;;;;;;5.00;3.05;;;14.80;99.90;;;;;;4992122;28;20018;-76
2023/07/19 02:33:25;;;;;;;7.30;3.13;;;14.90;99.90;;;;;;4993298;28;20480;-76
2023/07/19 02:35:54;;;;;;;4.80;3.58;;;14.90;99.90;;;;;;4991937;28;20026;-76
2023/07/19 02:38:21;;;;;;;4.95;3.00;;;14.90;99.90;;;;;;4993170;28;20437;-78
2023/07/19 02:40:47;;;;;;;3.20;3.00;;;14.90;99.90;;;;;;4991183;28;20030;-78
2023/07/19 02:43:13;;;;;;;4.45;3.45;;;14.90;99.90;;;;;;4993161;28;20046;-77
2023/07/19 02:45:39;;;;;;;4.75;3.28;;;14.90;99.90;;;;;;4992829;28;20073;-76
2023/07/19 02:48:05;;;;;;;5.05;3.42;;;14.90;99.90;;;;;;4993019;28;20050;-78
2023/07/19 02:50:30;;;;;;;4.20;3.35;;;14.90;99.90;;;;;;4992956;28;20105;-77
2023/07/19 02:52:57;;;;;;;4.60;3.47;;;14.90;99.90;;;;;;4992977;28;20519;-76
2023/07/19 02:55:22;;;;;;;5.15;3.80;;;14.90;99.90;;;;;;4992853;28;20042;-76
2023/07/19 02:57:48;;;;;;;3.95;2.95;;;14.90;99.90;;;;;;4993009;28;20025;-76
2023/07/19 03:00:14;;;;;;;8.73;3.65;;;14.90;99.90;;;;;;4992814;28;20376;-77
2023/07/19 03:02:40;;;;;;;5.32;3.33;;;14.90;99.90;;;;;;4992783;28;20019;-77
2023/07/19 03:05:06;;;;;;;3.80;3.42;;;15.00;99.90;;;;;;4991468;28;20128;-78
2023/07/19 03:07:32;;;;;;;3.78;3.10;;;14.90;99.90;;;;;;4991540;28;20038;-76
2023/07/19 03:09:58;;;;;;;4.85;3.05;;;14.90;99.90;;;;;;4992704;28;20038;-76
2023/07/19 03:12:24;;;;;;;3.58;3.03;;;15.00;99.90;;;;;;4992687;28;20026;-76
2023/07/19 03:14:49;;;;;;;4.63;3.05;;;15.00;99.90;;;;;;4992753;28;20033;-77
2023/07/19 03:17:15;;;;;;;4.03;3.28;;;15.00;99.90;;;;;;4991386;28;20379;-76
2023/07/19 03:19:40;;;;;;;4.97;3.92;;;15.00;99.90;;;;;;4991067;28;20039;-76
2023/07/19 03:22:06;;;;;;;5.72;3.00;;;15.00;99.90;;;;;;4991292;28;20022;-77
2023/07/19 03:24:32;;;;;;;4.80;3.28;;;15.00;99.90;;;;;;4991197;28;20068;-77
2023/07/19 03:26:57;;;;;;;6.15;3.65;;;15.00;99.90;;;;;;4992460;28;20050;-76
2023/07/19 03:29:23;;;;;;;3.25;2.78;;;15.00;99.90;;;;;;4992444;28;20030;-76
2023/07/19 03:31:49;;;;;;;5.97;3.70;;;15.10;99.90;;;;;;4992704;28;20026;-77
2023/07/19 03:34:14;;;;;;;3.17;2.40;;;15.10;99.90;;;;;;4991010;28;20034;-77
2023/07/19 03:36:40;;;;;;;3.80;2.85;;;15.10;99.90;;;;;;4992333;28;20030;-77
2023/07/19 03:39:06;;;;;;;3.97;3.10;;;15.30;96.50;;;;;;4990955;28;20109;-76
2023/07/19 03:41:31;;;;;;;5.35;3.42;;;15.50;95.70;;;;;;4992169;28;20059;-78
2023/07/19 03:43:57;;;;;;;3.88;3.28;;;15.70;95.40;;;;;;4992203;28;20023;-77
2023/07/19 03:46:22;;;;;;;4.40;2.63;;;15.90;87.60;;;;;;4990801;28;20019;-76
2023/07/19 03:48:48;;;;;;;4.15;3.13;;;16.10;86.50;;;;;;4990830;28;20020;-76
2023/07/19 03:51:14;;;;;;;2.90;2.70;;;16.30;85.40;;;;;;4990892;28;20388;-78
2023/07/19 03:53:40;;;;;;;4.35;2.67;;;16.40;82.40;;;;;;4990829;28;20470;-76
2023/07/19 03:56:06;;;;;;;3.67;2.72;;;16.60;80.90;;;;;;4991850;28;20054;-78
2023/07/19 03:58:32;;;;;;;4.57;2.88;;;16.90;81.60;;;;;;4991974;28;20099;-76
2023/07/19 04:00:59;;;;;;;5.28;3.05;;;17.10;84.80;;;;;;4991792;28;20073;-76
2023/07/19 04:03:26;;;;;;;3.60;2.88;;;17.20;85.80;;;;;;4996287;28;20665;-78
2023/07/19 04:05:53;;;;;;;7.82;3.20;;;17.30;81.00;;;;;;5010084;28;20026;-78
2023/07/19 04:08:18;;;;;;;4.35;3.10;;;17.50;78.20;;;;;;5010253;28;20030;-78
2023/07/19 04:10:44;;;;;;;4.38;2.22;;;17.60;75.00;;;;;;5010008;28;20113;-78
2023/07/19 04:13:10;;;;;;;4.68;2.47;;;17.70;73.40;;;;;;5009945;28;20540;-76
2023/07/19 04:15:36;;;;;;;6.22;2.70;;;17.80;73.30;;;;;;5011229;28;20030;-77
2023/07/19 04:18:02;;;;;;;6.53;3.10;;;17.90;73.00;;;;;;5009825;28;20368;-78
2023/07/19 04:20:29;;;;;;;5.40;2.55;;;18.00;72.00;;;;;;5009833;28;20396;-78
2023/07/19 04:22:54;;;;;;;4.47;2.50;;;18.20;70.80;;;;;;5009939;28;20049;-78
2023/07/19 04:25:21;;;;;;;5.25;2.58;;;18.30;70.70;;;;;;5011071;28;20057;-78
2023/07/19 04:27:47;;;;;;;3.55;2.67;;;18.50;69.80;;;;;;5011071;28;20475;-78
2023/07/19 04:30:13;;;;;;;3.67;2.55;;;18.60;70.80;;;;;;5011009;28;20441;-78
2023/07/19 04:32:39;;;;;;;4.22;2.30;;;18.80;70.30;;;;;;5010998;28;20022;-77
2023/07/19 04:35:06;;;;;;;3.95;2.45;;;19.00;69.80;;;;;;5009718;28;20026;-78
2023/07/19 04:37:32;;;;;;;3.63;2.47;;;19.20;69.10;;;;;;5010884;28;20026;-79
2023/07/19 04:39:58;;;;;;;3.42;2.72;;;19.20;68.00;;;;;;5009629;28;20078;-76
2023/07/19 04:42:24;;;;;;;6.13;2.90;;;19.20;68.50;;;;;;5010876;28;20022;-79
2023/07/19 04:44:50;;;;;;;5.47;3.03;;;19.20;69.10;;;;;;5010831;28;20471;-76
2023/07/19 04:47:16;;;;;;;3.10;2.80;;;19.10;68.90;;;;;;5010834;28;20104;-76
2023/07/19 04:49:42;;;;;;;3.28;2.58;;;19.20;70.20;;;;;;5009544;28;20050;-77
2023/07/19 04:52:08;;;;;;;4.63;3.08;;;19.10;69.80;;;;;;5009627;28;20022;-78
2023/07/19 04:54:34;;;;;;;3.42;2.85;;;19.10;71.10;;;;;;5010697;28;20487;-77
2023/07/19 04:56:59;;;;;;;4.03;2.67;;;19.20;72.90;;;;;;5004842;28;20030;-76
2023/07/19 04:59:25;;;;;;;6.30;3.33;;;19.20;71.40;;;;;;4999772;28;20026;-77
2023/07/19 05:01:51;;;;;;;4.93;3.30;;;19.30;71.90;;;;;;5001321;28;20079;-79
2023/07/19 05:04:16;;;;;;;3.78;2.47;;;19.30;71.60;;;;;;4999086;28;20078;-76
2023/07/19 05:06:42;;;;;;;4.57;2.88;;;19.30;71.60;;;;;;5000277;28;20028;-78
2023/07/19 05:09:09;;;;;;;4.75;3.28;;;19.30;72.20;;;;;;4999651;28;20018;-79
2023/07/19 05:11:34;;;;;;;5.13;2.90;;;19.20;72.90;;;;;;4999270;28;20026;-76
2023/07/19 05:14:00;;;;;;;4.18;2.97;;;19.30;72.30;;;;;;4998892;28;20491;-79
2023/07/19 05:16:26;;;;;;;2.60;2.40;;;19.40;71.60;;;;;;4999833;28;20044;-76
2023/07/19 05:18:52;;;;;;;2.65;2.35;;;19.40;71.50;;;;;;4999713;28;20018;-76
2023/07/19 05:21:18;;;;;;;5.43;2.80;;;19.60;71.10;;;;;;5009678;28;20137;-79
2023/07/19 05:23:44;;;;;;;4.57;3.20;;;19.60;71.70;;;;;;5008923;28;20022;-79
2023/07/19 05:26:09;;;;;;;5.15;2.95;;;19.50;72.00;;;;;;5010139;28;20068;-79
2023/07/19 05:28:36;;;;;;;5.63;3.55;;;19.50;72.90;;;;;;5008132;28;20508;-76
2023/07/19 05:31:03;;;;;;;5.38;3.25;;;19.60;72.90;;;;;;5007065;28;20439;-76
2023/07/19 05:33:28;;;;;;;2.80;2.60;;;19.70;73.00;;;;;;5009691;28;20105;-76
2023/07/19 05:35:54;;;;;;;5.15;3.47;;;19.80;74.20;;;;;;5010067;28;20528;-76
2023/07/19 05:38:20;;;;;;;2.88;2.65;;;19.90;72.50;;;;;;5010086;28;20026;-79
2023/07/19 05:40:45;;;;;;;2.92;2.60;;;20.10;72.20;;;;;;5008219;28;20056;-76
2023/07/19 05:43:11;;;;;;;4.78;3.00;;;20.20;71.50;;;;;;5006897;28;20014;-80
2023/07/19 05:45:37;;;;;;;3.65;2.33;;;20.20;72.40;;;;;;5006855;28;20425;-79
2023/07/19 05:48:02;;;;;;;4.20;2.72;;;20.30;72.20;;;;;;5006818;28;20121;-79
2023/07/19 05:50:28;;;;;;;6.78;2.75;;;20.40;69.90;;;;;;5006469;28;20025;-79
2023/07/19 05:52:54;;;;;;;4.00;3.00;;;20.50;70.80;;;;;;5006994;28;20075;-79
2023/07/19 05:55:20;;;;;;;4.97;2.80;;;20.70;71.80;;;;;;5006854;28;20061;-79
2023/07/19 05:57:45;;;;;;;5.43;3.20;;;20.80;70.70;;;;;;5005764;28;20026;-75
2023/07/19 06:00:28;;;;;;;4.13;3.10;;;20.90;69.70;;;;;;5006113;28;20037;-79
2023/07/19 06:02:55;;;;;;;5.28;2.88;;;21.20;69.70;;;;;;5004149;28;20105;-76
2023/07/19 06:05:23;;;;;;;4.50;2.97;;;21.30;69.40;;;;;;5005386;28;20086;-79
2023/07/19 06:07:48;;;;;;;4.95;3.35;;;21.50;68.80;;;;;;4992536;28;20578;-76
2023/07/19 06:10:14;;;;;;;12.30;4.00;;;21.60;66.40;;;;;;4990817;28;20025;-79
2023/07/19 06:12:44;;;;;;;6.05;2.90;;;21.70;66.50;;;;;;5004565;28;20030;-79
2023/07/19 06:15:09;;;;;;;3.35;2.90;;;21.90;67.00;;;;;;5006222;28;20029;-77
2023/07/19 06:17:36;;;;;;;4.90;3.33;;;22.10;66.30;;;;;;5008536;28;20063;-80
2023/07/19 06:20:03;;;;;;;6.07;3.17;;;22.30;66.90;;;;;;5009694;28;20091;-76
2023/07/19 06:22:30;;;;;;;7.60;2.88;;;22.30;65.70;;;;;;5011384;28;20022;-79
2023/07/19 06:24:57;;;;;;;3.53;2.58;;;22.60;66.60;;;;;;5011113;28;20030;-79
2023/07/19 06:27:23;;;;;;;5.93;3.20;;;22.70;66.10;;;;;;5009787;28;20425;-79
2023/07/19 06:29:50;;;;;;;4.68;3.35;;;22.80;65.10;;;;;;5009717;28;20034;-76
2023/07/19 06:32:16;;;;;;;3.28;2.97;;;23.00;64.10;;;;;;5011444;28;20471;-79
2023/07/19 06:34:42;;;;;;;6.50;3.22;;;22.90;64.10;;;;;;5010173;28;20075;-79
2023/07/19 06:37:08;;;;;;;5.97;3.35;;;23.00;64.20;;;;;;5012240;28;20475;-79
2023/07/19 06:39:33;;;;;;;5.97;3.17;;;23.00;65.00;;;;;;5011545;28;20123;-76
2023/07/19 06:41:59;;;;;;;7.10;3.10;;;23.20;66.00;;;;;;5011488;28;20025;-76
2023/07/19 06:44:24;;;;;;;7.00;3.58;;;23.30;64.20;;;;;;5012727;28;20379;-79
2023/07/19 06:46:50;;;;;;;3.30;2.80;;;23.50;64.60;;;;;;5012707;28;20476;-76
2023/07/19 06:49:16;;;;;;;4.15;3.22;;;23.70;63.30;;;;;;5012637;28;20030;-79
2023/07/19 06:51:41;;;;;;;6.47;2.88;;;23.80;62.00;;;;;;5012626;28;20032;-79
2023/07/19 06:54:07;;;;;;;3.97;2.70;;;23.70;61.80;;;;;;5012491;28;20046;-79
2023/07/19 06:56:33;;;;;;;3.47;3.17;;;23.80;61.50;;;;;;5012686;28;20028;-79
2023/07/19 06:58:58;;;;;;;4.43;3.05;;;23.90;61.00;;;;;;5012591;28;20029;-77
2023/07/19 07:01:24;;;;;;;4.30;2.67;;;23.90;62.30;;;;;;5012463;28;20041;-77
2023/07/19 07:03:50;;;;;;;5.13;3.20;;;23.90;62.80;;;;;;5012439;28;20026;-76
2023/07/19 07:06:16;;;;;;;5.78;3.08;;;24.00;62.40;;;;;;5012612;28;20022;-79
2023/07/19 07:08:44;;;;;;;4.78;3.25;;;24.00;63.10;;;;;;5011045;28;20490;-77
2023/07/19 07:11:09;;;;;;;3.92;2.85;;;24.00;62.90;;;;;;5012384;28;20041;-79
2023/07/19 07:13:35;;;;;;;4.65;3.15;;;24.00;62.20;;;;;;5011005;28;20018;-79
2023/07/19 07:16:01;;;;;;;3.42;3.08;;;24.00;62.10;;;;;;5012532;28;20372;-79
2023/07/19 07:18:27;;;;;;;3.85;3.17;;;24.00;62.80;;;;;;5011010;28;20030;-79
2023/07/19 07:20:53;;;;;;;5.82;2.97;;;24.10;61.90;;;;;;5012252;28;20044;-79
2023/07/19 07:23:18;;;;;;;7.03;2.90;;;24.10;61.90;;;;;;5012314;28;20026;-79
2023/07/19 07:25:44;;;;;;;3.92;2.60;;;24.20;61.60;;;;;;5010963;28;20026;-79
2023/07/19 07:28:10;;;;;;;3.42;2.95;;;24.30;61.30;;;;;;5010565;28;20033;-79
2023/07/19 07:30:37;;;;;;;4.28;3.17;;;24.50;60.80;;;;;;5011044;28;20363;-77
2023/07/19 07:33:03;;;;;;;5.30;3.30;;;24.60;60.40;;;;;;5012020;28;20127;-80
2023/07/19 07:35:29;;;;;;;4.35;2.97;;;24.80;59.90;;;;;;5010879;28;20040;-79
2023/07/19 07:37:55;;;;;;;4.68;3.30;;;24.70;58.30;;;;;;5010790;28;20499;-80
2023/07/19 07:40:20;;;;;;;4.28;3.28;;;24.70;57.70;;;;;;5012024;28;20044;-80
2023/07/19 07:42:46;;;;;;;4.40;2.92;;;24.70;57.60;;;;;;5010649;28;20018;-80
2023/07/19 07:45:12;;;;;;;5.32;3.08;;;24.90;58.80;;;;;;5010530;28;20058;-77
2023/07/19 07:47:38;;;;;;;3.80;2.75;;;25.00;56.50;;;;;;5011869;28;20468;-77
2023/07/19 07:50:08;;;;;;;3.92;3.05;;;25.00;58.20;;;;;;5010466;28;20033;-80
2023/07/19 07:52:34;;;;;;;4.82;3.03;;;25.30;57.40;;;;;;5010475;28;20018;-77
2023/07/19 07:55:00;;;;;;;3.47;3.17;;;25.50;57.40;;;;;;5011659;28;20132;-80
2023/07/19 07:57:26;;;;;;;3.58;2.65;;;25.40;55.40;;;;;;5011693;28;20072;-80
2023/07/19 07:59:51;;;;;;;4.07;3.30;;;25.50;55.40;;;;;;5011614;28;20037;-76
2023/07/19 08:02:17;;;;;;;4.22;3.17;;;25.60;54.80;;;;;;5011744;28;20380;-77
2023/07/19 08:04:43;;;;;;;6.60;3.58;;;25.90;55.00;;;;;;5010262;28;20025;-78
2023/07/19 08:07:08;;;;;;;3.53;2.88;;;26.20;56.40;;;;;;5011581;28;20943;-79
2023/07/19 08:09:34;;;;;;;3.88;3.20;;;26.30;54.00;;;;;;5011446;28;20046;-76
2023/07/19 08:12:00;;;;;;;3.47;3.00;;;26.30;53.70;;;;;;5011416;28;20018;-80
2023/07/19 08:14:26;;;;;;;6.13;3.42;;;26.30;53.50;;;;;;5011344;28;20045;-80
2023/07/19 08:16:53;;;;;;;4.32;2.92;;;26.40;53.90;;;;;;5010184;28;20107;-77
2023/07/19 08:19:18;;;;;;;6.10;3.00;;;26.60;52.90;;;;;;5011441;28;20018;-76
2023/07/19 08:21:44;;;;;;;5.30;3.45;;;26.70;51.50;;;;;;5011644;28;20151;-80
2023/07/19 08:24:11;;;;;;;5.43;3.28;;;26.70;52.30;;;;;;5011238;28;20030;-80
2023/07/19 08:26:37;;;;;;;3.33;3.03;;;26.80;53.10;;;;;;5010052;28;20026;-76
2023/07/19 08:29:02;;;;;;;3.58;3.28;;;26.70;51.70;;;;;;5011073;28;20057;-80
2023/07/19 08:31:28;;;;;;;5.93;2.90;;;26.80;51.70;;;;;;5011255;28;20491;-76
2023/07/19 08:33:54;;;;;;;2.60;2.40;;;26.90;51.40;;;;;;5011000;28;20474;-77
2023/07/19 08:36:19;;;;;;;4.03;2.97;;;27.10;50.80;;;;;;5009904;28;20461;-77
2023/07/19 08:38:45;;;;;;;3.28;2.97;;;27.10;50.70;;;;;;5010402;28;20022;-79
2023/07/19 08:41:12;;;;;;;4.60;2.90;;;27.10;50.90;;;;;;5010975;28;20073;-77
2023/07/19 08:43:38;;;;;;;3.90;3.15;;;27.40;49.80;;;;;;5009679;28;20033;-77
2023/07/19 08:46:04;;;;;;;4.88;2.95;;;27.50;49.20;;;;;;5010770;28;20067;-77
2023/07/19 08:48:31;;;;;;;5.65;3.30;;;27.40;48.30;;;;;;5010980;28;20030;-78
2023/07/19 08:51:01;;;;;;;4.88;2.95;;;27.40;48.40;;;;;;5010817;28;20050;-76
2023/07/19 08:53:27;;;;;;;3.47;2.50;;;27.40;47.70;;;;;;5009604;28;20030;-80
2023/07/19 08:55:54;;;;;;;6.57;3.22;;;27.60;47.80;;;;;;5009467;28;20046;-80
2023/07/19 08:58:20;;;;;;;2.72;2.53;;;27.70;48.80;;;;;;5009879;28;20026;-80
2023/07/19 09:00:47;;;;;;;4.05;2.67;;;27.60;46.90;;;;;;5010062;28;20527;-77
2023/07/19 09:03:14;;;;;;;5.72;3.00;;;27.70;46.00;;;;;;5010674;28;20033;-77
2023/07/19 09:05:40;;;;;;;4.00;2.97;;;27.50;45.10;;;;;;5010786;28;20030;-76
2023/07/19 09:08:09;;;;;;;3.72;2.67;;;27.60;45.50;;;;;;5010671;28;20022;-76
2023/07/19 09:10:35;;;;;;;5.20;3.25;;;27.60;44.40;;;;;;5009244;28;20372;-76
2023/07/19 09:13:06;;;;;;;3.40;2.65;;;27.80;44.70;;;;;;5010607;28;20026;-80
2023/07/19 09:15:38;;;;;;;2.60;2.38;;;27.80;44.20;;;;;;5009322;28;20056;-80
2023/07/19 09:18:04;;;;;;;;;;;27.90;45.10;;;;;;5009964;28;20022;-80
2023/07/19 09:20:30;;;;;;;3.38;2.17;;;27.80;44.70;;;;;;5009285;28;20004;-77
2023/07/19 09:23:03;;;;;;;3.03;2.58;;;27.70;42.90;;;;;;5010507;28;20057;-76
2023/07/19 09:25:28;;;;;;;6.72;3.00;;;27.80;42.40;;;;;;5009378;28;20021;-77
2023/07/19 09:27:54;;;;;;;4.88;3.72;;;27.90;44.60;;;;;;5010399;28;20109;-77
2023/07/19 09:30:20;;;;;;;4.25;2.60;;;27.90;45.60;;;;;;5010691;28;20022;-80
2023/07/19 09:33:00;;;;;;;6.35;3.22;;;27.90;45.70;;;;;;5009128;28;20030;-80
2023/07/19 09:35:27;;;;;;;4.88;3.00;;;27.90;44.60;;;;;;5009074;28;20018;-77
2023/07/19 09:37:53;;;;;;;4.40;2.70;;;27.90;44.70;;;;;;5009200;28;20060;-76
2023/07/19 09:40:19;;;;;;;4.53;3.20;;;27.90;44.90;;;;;;5010399;28;20030;-76
2023/07/19 09:42:45;;;;;;;4.10;3.25;;;27.80;45.40;;;;;;5010545;28;20025;-77
2023/07/19 09:45:11;;;;;;;7.25;3.28;;;27.70;45.80;;;;;;5010278;28;20026;-77
2023/07/19 09:47:39;;;;;;;6.63;2.70;;;27.80;45.80;;;;;;5008965;28;20020;-80
2023/07/19 09:50:06;;;;;;;3.80;2.90;;;27.90;45.80;;;;;;5011248;28;20100;-77
2023/07/19 09:52:37;;;;;;;4.47;2.83;;;28.10;47.30;;;;;;5012333;28;20045;-77
2023/07/19 09:55:05;;;;;;;4.28;3.33;;;28.30;46.10;;;;;;5013415;28;20045;-80
2023/07/19 09:57:32;;;;;;;4.60;3.13;;;28.20;45.10;;;;;;5013587;28;20573;-80
2023/07/19 09:59:59;;;;;;;3.47;2.88;;;28.30;45.30;;;;;;5011977;28;20030;-77
2023/07/19 10:02:24;;;;;;;3.80;2.92;;;28.50;46.50;;;;;;5012230;28;20364;-78
2023/07/19 10:04:51;;;;;;;3.17;2.88;;;28.50;45.80;;;;;;5013343;28;20106;-76
2023/07/19 10:07:21;;;;;;;3.08;2.47;;;28.40;46.00;;;;;;5013358;28;20391;-77
2023/07/19 10:10:03;;;;;;;6.32;3.58;;;28.50;45.90;;;;;;5013269;28;20034;-77
2023/07/19 10:12:31;;;;;;;3.67;3.03;;;28.40;46.40;;;;;;5013317;28;20022;-80
2023/07/19 10:15:06;;;;;;;5.13;3.28;;;28.40;46.30;;;;;;5011844;28;20026;-80
2023/07/19 10:17:51;;;;;;;3.65;2.88;;;28.40;46.00;;;;;;5012023;28;20026;-77
2023/07/19 10:20:17;;;;;;;5.32;3.42;;;28.60;47.00;;;;;;5013211;28;20034;-77
2023/07/19 10:22:58;;;;;;;5.50;3.60;;;28.40;46.10;;;;;;5013054;28;20532;-77
2023/07/19 10:25:34;;;;;;;4.32;3.90;;;28.50;45.70;;;;;;5013419;28;20105;-80
2023/07/19 10:28:11;;;;;;;5.13;3.88;;;28.70;44.70;;;;;;5012435;28;20022;-77
2023/07/19 10:30:50;;;;;;;5.15;3.38;;;28.60;44.80;;;;;;5011854;28;20022;-78
2023/07/19 10:33:20;;;;;;;6.90;4.30;;;28.30;46.00;;;;;;5011847;28;20018;-77
2023/07/19 10:35:48;;;;;;;4.85;3.30;;;28.60;46.70;;;;;;5012513;28;20022;-80
2023/07/19 10:38:15;;;;;;;8.07;4.22;;;28.60;46.40;;;;;;5012766;28;20018;-77
2023/07/19 10:40:45;;;;;;;4.65;3.72;;;28.80;46.10;;;;;;5012698;28;20037;-77
2023/07/19 10:43:11;;;;;;;8.18;3.85;;;28.80;44.20;;;;;;5012719;28;20026;-81
2023/07/19 10:45:38;;;;;;;5.53;3.17;;;28.70;45.10;;;;;;5011397;28;20029;-81
2023/07/19 10:48:04;;;;;;;5.22;4.05;;;28.40;42.90;;;;;;5012931;28;20026;-77
2023/07/19 10:50:30;;;;;;;5.10;3.47;;;28.30;42.40;;;;;;5013074;28;20036;-80
2023/07/19 10:52:56;;;;;;;9.02;3.88;;;28.40;43.50;;;;;;5011523;28;20475;-77
2023/07/19 10:55:21;;;;;;;7.32;3.78;;;28.50;44.60;;;;;;5012481;28;20047;-81
2023/07/19 10:57:47;;;;;;;4.30;3.40;;;28.60;44.60;;;;;;5012705;28;20436;-80
2023/07/19 11:00:13;;;;;;;5.38;3.35;;;28.30;43.10;;;;;;5011138;28;20034;-77
2023/07/19 11:02:40;;;;;;;4.93;3.05;;;28.50;44.00;;;;;;5010581;28;20022;-78
2023/07/19 11:05:09;;;;;;;4.70;2.95;;;28.40;43.50;;;;;;5011046;28;20029;-75
2023/07/19 11:07:35;;;;;;;4.13;3.35;;;28.40;40.90;;;;;;5012535;28;20029;-78
2023/07/19 11:10:02;;;;;;;7.28;4.07;;;28.50;41.40;;;;;;5011183;28;20116;-75
2023/07/19 11:12:30;;;;;;;6.65;3.35;;;28.50;41.20;;;;;;5012358;28;20471;-79
2023/07/19 11:14:58;;;;;;;5.55;4.20;;;28.80;41.70;;;;;;5012276;28;20119;-76
2023/07/19 11:17:26;;;;;;;5.85;4.65;;;28.90;41.80;;;;;;5012335;28;20028;-75
2023/07/19 11:19:52;;;;;;;8.60;4.88;;;28.50;40.30;;;;;;5010872;28;20087;-79
2023/07/19 11:22:25;;;;;;;10.85;5.95;;;28.40;42.20;;;;;;5012297;28;20041;-79
2023/07/19 11:24:52;;;;;;;11.10;6.97;;;28.30;46.10;;;;;;5012259;28;20137;-79
2023/07/19 11:27:19;;;;;;;12.32;6.60;;;28.30;46.60;;;;;;5012290;28;20022;-75
2023/07/19 11:29:52;;;;;;;10.23;6.15;;;28.30;45.40;;;;;;5012121;28;20487;-79
2023/07/19 11:32:23;;;;;;;10.13;6.20;;;28.40;46.10;;;;;;5010958;28;20026;-75
2023/07/19 11:34:56;;;;;;;8.45;5.50;;;28.70;46.20;;;;;;5010844;28;20022;-79
2023/07/19 11:37:33;;;;;;;12.32;5.85;;;28.90;44.90;;;;;;5011962;28;20022;-75
2023/07/19 11:40:07;;;;;;;9.23;6.20;;;29.10;46.10;;;;;;5012113;28;20087;-79
2023/07/19 11:42:52;;;;;;;10.20;5.53;;;29.10;47.40;;;;;;5010744;28;20492;-79
2023/07/19 11:45:20;;;;;;;13.20;5.38;;;29.00;45.40;;;;;;5012024;28;20075;-76
2023/07/19 11:47:48;;;;;;;8.32;4.63;;;28.80;44.60;;;;;;5011915;28;20060;-76
2023/07/19 11:50:14;;;;;;;10.68;5.68;;;28.80;45.20;;;;;;5011930;28;20052;-79
2023/07/19 11:52:43;;;;;;;10.32;5.20;;;29.00;43.90;;;;;;5011664;28;20022;-78
2023/07/19 11:55:11;;;;;;;10.07;4.57;;;29.10;43.80;;;;;;5011507;28;20054;-79
2023/07/19 11:57:38;;;;;;;5.22;4.13;;;29.20;45.20;;;;;;5010399;28;20022;-75
2023/07/19 12:00:05;;;;;;;4.85;3.35;;;29.50;43.40;;;;;;5010239;28;20018;-79
2023/07/19 12:02:31;;;;;;;14.93;3.60;;;29.40;42.40;;;;;;5011596;28;20030;-75
2023/07/19 12:04:56;;;;;;;3.90;3.10;;;29.50;43.10;;;;;;5011506;28;20151;-79
2023/07/19 12:07:22;;;;;;;6.70;3.33;;;29.70;41.30;;;;;;5010251;28;20490;-75
2023/07/19 12:09:48;;;;;;;6.13;3.00;;;29.60;42.30;;;;;;5011747;28;20029;-78
2023/07/19 12:12:13;;;;;;;7.10;3.10;;;29.20;42.00;;;;;;5010335;28;20463;-75
2023/07/19 12:14:39;;;;;;;6.18;2.85;;;28.80;41.20;;;;;;5010356;28;20022;-79
2023/07/19 12:17:06;;;;;;;7.80;3.50;;;28.70;41.60;;;;;;5011474;28;20110;-75
2023/07/19 12:19:33;;;;;;;3.38;3.05;;;28.60;43.20;;;;;;5010047;28;20087;-78
2023/07/19 12:21:59;;;;;;;6.65;3.47;;;28.30;44.40;;;;;;5010109;28;20477;-75
2023/07/19 12:24:24;;;;;;;4.57;2.83;;;28.20;44.60;;;;;;5010062;28;20026;-75
2023/07/19 12:26:50;;;;;;;4.85;3.55;;;28.10;44.90;;;;;;5011229;28;20067;-76
2023/07/19 12:29:16;;;;;;;6.10;3.35;;;28.00;45.30;;;;;;5009857;28;20042;-76
2023/07/19 12:31:41;;;;;;;3.67;2.65;;;28.00;45.50;;;;;;5011230;28;20018;-78
2023/07/19 12:34:07;;;;;;;8.05;3.35;;;28.10;47.10;;;;;;5009710;28;20049;-78
2023/07/19 12:36:32;;;;;;;6.95;3.60;;;28.10;46.70;;;;;;5011163;28;20106;-78
2023/07/19 12:38:58;;;;;;;5.82;3.42;;;28.30;46.20;;;;;;5010965;28;20078;-75
2023/07/19 12:41:25;;;;;;;6.63;3.42;;;28.60;46.20;;;;;;5010994;28;20069;-78
2023/07/19 12:43:50;;;;;;;3.45;2.70;;;28.70;47.50;;;;;;5009707;28;20454;-76